createdAt,value
2022-08-05T00:01:20.283Z,42.78
2022-08-05T00:02:07.765Z,40.53
2022-08-05T00:02:58.071Z,43.42
2022-08-05T00:03:57.508Z,51.34
2022-08-05T00:04:56.984Z,40.29
2022-08-05T00:06:05.410Z,52.34
2022-08-05T00:06:57.967Z,44.26
2022-08-05T00:08:00.336Z,42.30
2022-08-05T00:08:56.902Z,52.13
2022-08-05T00:09:56.898Z,36.79
2022-08-05T00:10:56.939Z,53.01
2022-08-05T00:11:59.841Z,54.65
2022-08-05T00:12:57.100Z,39.09
2022-08-05T00:13:57.888Z,47.39
2022-08-05T00:14:56.855Z,44.26
2022-08-05T00:15:57.802Z,42.41
2022-08-05T00:16:57.922Z,43.08
2022-08-05T00:17:56.854Z,39.19
2022-08-05T00:18:56.835Z,38.67
2022-08-05T00:20:01.952Z,40.20
2022-08-05T00:20:57.767Z,52.42
2022-08-05T00:21:56.801Z,41.22
2022-08-05T00:22:58.511Z,50.15
2022-08-05T00:24:09.825Z,47.00
2022-08-05T00:24:57.789Z,45.67
2022-08-05T00:25:56.728Z,49.70
2022-08-05T00:26:56.829Z,46.34
2022-08-05T00:27:56.714Z,45.63
2022-08-05T00:28:56.730Z,35.86
2022-08-05T00:29:56.707Z,48.71
2022-08-05T00:30:56.728Z,45.92
2022-08-05T00:32:13.142Z,54.07
2022-08-05T00:32:57.669Z,49.36
2022-08-05T00:34:55.858Z,45.94
2022-08-05T00:35:06.634Z,42.40
2022-08-05T00:36:16.370Z,41.67
2022-08-05T00:37:09.766Z,42.26
2022-08-05T00:37:57.701Z,44.83
2022-08-05T00:38:56.707Z,43.64
2022-08-05T00:39:57.844Z,52.38
2022-08-05T00:40:56.590Z,44.01
2022-08-05T00:41:56.648Z,46.58
2022-08-05T00:42:56.559Z,47.41
2022-08-05T00:43:56.573Z,55.50
2022-08-05T00:44:56.610Z,54.83
2022-08-05T00:45:56.565Z,50.15
2022-08-05T00:47:01.595Z,41.69
2022-08-05T00:48:05.305Z,46.90
2022-08-05T00:48:57.643Z,46.61
2022-08-05T00:49:56.515Z,36.21
2022-08-05T00:50:56.503Z,42.64
2022-08-05T00:51:56.526Z,44.40
2022-08-05T00:52:56.483Z,49.59
2022-08-05T00:54:02.690Z,54.04
2022-08-05T00:54:57.499Z,43.44
2022-08-05T00:55:56.449Z,48.26
2022-08-05T00:56:56.450Z,49.42
2022-08-05T00:57:59.092Z,45.80
2022-08-05T00:58:56.440Z,48.19
2022-08-05T00:59:56.411Z,41.17
2022-08-05T01:00:56.418Z,40.97
2022-08-05T01:01:56.473Z,44.59
2022-08-05T01:02:56.367Z,56.18
2022-08-05T01:03:56.387Z,51.44
2022-08-05T01:04:56.352Z,41.98
2022-08-05T01:05:56.392Z,53.09
2022-08-05T01:06:56.399Z,54.89
2022-08-05T01:08:41.054Z,46.87
2022-08-05T01:08:57.362Z,51.79
2022-08-05T01:09:56.305Z,46.52
2022-08-05T01:10:56.334Z,54.48
2022-08-05T01:11:56.439Z,50.01
2022-08-05T01:13:05.119Z,54.54
2022-08-05T01:13:59.620Z,46.16
2022-08-05T01:14:56.238Z,45.66
2022-08-05T01:15:56.264Z,39.82
2022-08-05T01:16:56.255Z,52.78
2022-08-05T01:17:56.248Z,44.75
2022-08-05T01:18:56.741Z,53.59
2022-08-05T01:20:02.702Z,49.83
2022-08-05T01:20:57.203Z,43.70
2022-08-05T01:21:56.245Z,48.96
2022-08-05T01:22:57.276Z,44.94
2022-08-05T01:23:56.172Z,47.79
2022-08-05T01:24:56.170Z,48.12
2022-08-05T01:25:56.165Z,42.93
2022-08-05T01:26:56.155Z,51.80
2022-08-05T01:27:56.160Z,44.81
2022-08-05T01:28:56.132Z,40.84
2022-08-05T01:29:56.188Z,52.01
2022-08-05T01:30:56.161Z,51.44
2022-08-05T01:31:56.087Z,49.98
2022-08-05T01:32:56.226Z,52.43
2022-08-05T01:33:56.058Z,54.61
2022-08-05T01:34:57.025Z,51.01
2022-08-05T01:35:57.600Z,61.91
2022-08-05T01:36:56.107Z,52.88
2022-08-05T01:37:56.114Z,52.62
2022-08-05T01:38:56.078Z,52.09
2022-08-05T01:39:58.978Z,50.73
2022-08-05T01:40:56.050Z,58.59
2022-08-05T01:41:56.010Z,57.38
2022-08-05T01:42:56.051Z,55.76
2022-08-05T01:43:56.149Z,62.97
2022-08-05T01:44:56.050Z,60.30
2022-08-05T01:45:56.749Z,61.36
2022-08-05T01:46:55.996Z,61.56
2022-08-05T01:47:55.999Z,61.65
2022-08-05T01:48:55.983Z,60.64
2022-08-05T01:50:01.862Z,59.14
2022-08-05T01:50:57.962Z,59.41
2022-08-05T01:51:55.929Z,57.09
2022-08-05T01:52:56.037Z,58.32
2022-08-05T01:53:58.836Z,57.69
2022-08-05T01:54:55.885Z,57.81
2022-08-05T01:55:55.849Z,58.10
2022-08-05T01:58:10.037Z,56.94
2022-08-05T01:58:10.132Z,57.41
2022-08-05T01:58:56.836Z,58.27
2022-08-05T01:59:55.924Z,57.50
2022-08-05T02:01:04.073Z,59.46
2022-08-05T02:01:55.875Z,56.93
2022-08-05T02:02:55.797Z,58.05
2022-08-05T02:03:55.789Z,57.04
2022-08-05T02:04:55.763Z,56.99
2022-08-05T02:05:59.832Z,58.66
2022-08-05T02:06:56.743Z,56.76
2022-08-05T02:08:00.020Z,57.20
2022-08-05T02:08:58.781Z,57.61
2022-08-05T02:09:55.709Z,56.47
2022-08-05T02:10:55.688Z,55.98
2022-08-05T02:11:55.671Z,56.70
2022-08-05T02:12:55.670Z,59.03
2022-08-05T02:13:55.701Z,56.68
2022-08-05T02:14:55.682Z,57.48
2022-08-05T02:15:55.637Z,58.06
2022-08-05T02:16:55.653Z,58.12
2022-08-05T02:18:31.767Z,58.56
2022-08-05T02:18:56.612Z,57.27
2022-08-05T02:19:55.630Z,57.92
2022-08-05T02:20:58.875Z,58.69
2022-08-05T02:21:55.625Z,57.26
2022-08-05T02:22:55.601Z,58.49
2022-08-05T02:23:55.550Z,59.68
2022-08-05T02:24:55.588Z,59.82
2022-08-05T02:25:55.602Z,59.31
2022-08-05T02:26:55.619Z,58.73
2022-08-05T02:27:58.479Z,58.40
2022-08-05T02:28:55.519Z,56.72
2022-08-05T02:29:59.474Z,56.58
2022-08-05T02:30:56.548Z,57.13
2022-08-05T02:31:55.476Z,56.23
2022-08-05T02:45:56.827Z,52.84
2022-08-05T02:52:37.453Z,47.76
2022-08-05T02:53:39.686Z,48.45
2022-08-05T02:54:37.433Z,47.82
2022-08-05T02:55:54.923Z,48.21
2022-08-05T02:56:38.736Z,50.03
2022-08-05T02:58:11.265Z,47.59
2022-08-05T02:58:43.702Z,49.80
2022-08-05T02:59:47.897Z,48.23
2022-08-05T03:00:38.525Z,50.01
2022-08-05T03:01:37.620Z,45.47
2022-08-05T03:02:37.577Z,45.36
2022-08-05T03:04:04.219Z,50.59
2022-08-05T03:04:38.475Z,48.14
2022-08-05T03:06:55.387Z,47.24
2022-08-05T03:06:56.474Z,51.06
2022-08-05T03:08:00.704Z,49.57
2022-08-05T03:08:38.441Z,51.63
2022-08-05T03:09:38.412Z,50.40
2022-08-05T03:10:38.417Z,46.19
2022-08-05T03:11:56.069Z,46.17
2022-08-05T03:12:38.521Z,53.59
2022-08-05T03:13:51.465Z,51.05
2022-08-05T03:14:45.767Z,45.10
2022-08-05T03:15:38.406Z,54.18
2022-08-05T03:16:37.334Z,50.55
2022-08-05T03:17:41.515Z,49.99
2022-08-05T03:18:37.364Z,50.54
2022-08-05T03:19:37.325Z,53.37
2022-08-05T03:20:37.311Z,51.57
2022-08-05T03:21:41.692Z,47.57
2022-08-05T03:22:38.361Z,45.64
2022-08-05T03:23:38.253Z,55.39
2022-08-05T03:24:37.274Z,46.72
2022-08-05T03:26:04.982Z,49.48
2022-08-05T03:26:38.238Z,54.23
2022-08-05T03:27:58.034Z,50.88
2022-08-05T03:28:38.207Z,55.40
2022-08-05T03:29:45.269Z,56.72
2022-08-05T03:30:38.441Z,50.16
2022-08-05T03:31:56.462Z,57.05
2022-08-05T03:32:38.226Z,55.15
2022-08-05T03:33:51.019Z,54.62
2022-08-05T03:34:38.154Z,52.93
2022-08-05T03:35:40.784Z,56.17
2022-08-05T03:36:37.164Z,56.90
2022-08-05T03:37:46.543Z,58.18
2022-08-05T03:38:38.134Z,57.01
2022-08-05T03:39:57.775Z,56.20
2022-08-05T03:40:39.268Z,56.28
2022-08-05T03:41:45.178Z,53.68
2022-08-05T03:42:51.449Z,57.59
2022-08-05T03:44:09.535Z,58.89
2022-08-05T03:44:38.105Z,54.82
2022-08-05T03:45:58.339Z,58.08
2022-08-05T03:46:38.079Z,54.69
2022-08-05T03:47:41.387Z,56.26
2022-08-05T03:48:37.025Z,56.07
2022-08-05T03:49:51.437Z,54.18
2022-08-05T03:50:37.995Z,56.88
2022-08-05T03:52:49.072Z,56.80
2022-08-05T03:55:00.017Z,52.53
2022-08-05T03:55:52.722Z,57.34
2022-08-05T03:56:00.722Z,54.93
2022-08-05T03:56:01.887Z,55.63
2022-08-05T03:56:37.949Z,56.44
2022-08-05T03:57:42.042Z,52.35
2022-08-05T03:58:37.940Z,55.16
2022-08-05T03:59:47.650Z,49.94
2022-08-05T04:00:37.890Z,54.31
2022-08-05T04:01:36.981Z,54.56
2022-08-05T04:02:38.594Z,53.36
2022-08-05T04:03:38.152Z,54.29
2022-08-05T04:04:36.863Z,52.42
2022-08-05T04:05:36.869Z,59.19
2022-08-05T04:06:36.865Z,51.41
2022-08-05T04:07:36.844Z,53.53
2022-08-05T04:08:37.856Z,58.80
2022-08-05T04:09:36.827Z,56.04
2022-08-05T04:10:38.347Z,57.39
2022-08-05T04:11:47.528Z,54.92
2022-08-05T04:14:29.836Z,59.55
2022-08-05T04:15:24.760Z,57.65
2022-08-05T04:16:25.196Z,58.31
2022-08-05T04:17:24.922Z,60.10
2022-08-05T04:18:25.510Z,63.34
2022-08-05T04:19:23.649Z,62.73
2022-08-05T04:20:23.601Z,59.32
2022-08-05T04:22:08.235Z,61.73
2022-08-05T04:22:24.603Z,59.64
2022-08-05T04:23:57.222Z,60.54
2022-08-05T04:24:24.729Z,61.93
2022-08-05T04:25:38.280Z,64.21
2022-08-05T04:26:24.541Z,61.26
2022-08-05T04:27:41.943Z,61.95
2022-08-05T04:28:28.531Z,63.26
2022-08-05T04:29:24.543Z,63.32
2022-08-05T04:30:23.499Z,63.81
2022-08-05T04:31:23.564Z,64.83
2022-08-05T04:32:31.090Z,64.72
2022-08-05T04:33:54.901Z,63.20
2022-08-05T04:34:33.735Z,62.51
2022-08-05T04:35:24.456Z,60.64
2022-08-05T04:36:49.370Z,61.69
2022-08-05T04:38:02.158Z,62.50
2022-08-05T04:38:39.751Z,57.93
2022-08-05T04:39:27.559Z,61.29
2022-08-05T04:40:24.553Z,61.25
2022-08-05T04:41:37.113Z,62.15
2022-08-05T04:42:25.679Z,59.03
2022-08-05T04:43:24.531Z,60.47
2022-08-05T04:44:29.883Z,61.52
2022-08-05T04:45:48.607Z,60.34
2022-08-05T04:46:27.805Z,59.05
2022-08-05T04:47:24.864Z,59.30
2022-08-05T04:48:27.347Z,61.49
2022-08-05T04:49:38.675Z,61.82
2022-08-05T04:50:37.233Z,60.92
2022-08-05T04:51:25.509Z,59.70
2022-08-05T04:52:24.473Z,58.14
2022-08-05T04:53:24.438Z,54.56
2022-08-05T04:54:24.462Z,57.79
2022-08-05T04:56:15.240Z,58.39
2022-08-05T04:56:35.162Z,58.84
2022-08-05T04:57:28.539Z,59.73
2022-08-05T04:58:24.395Z,54.89
2022-08-05T04:59:40.585Z,57.66
2022-08-05T05:00:25.373Z,58.00
2022-08-05T05:01:33.680Z,60.26
2022-08-05T05:02:41.944Z,56.43
2022-08-05T05:03:25.346Z,57.19
2022-08-05T05:04:25.331Z,59.47
2022-08-05T05:05:28.257Z,58.64
2022-08-05T05:06:38.797Z,60.76
2022-08-05T05:07:29.438Z,55.33
2022-08-05T05:08:29.877Z,59.60
2022-08-05T05:09:25.290Z,57.79
2022-08-05T05:10:24.259Z,56.18
2022-08-05T05:11:24.259Z,58.52
2022-08-05T05:12:27.367Z,59.05
2022-08-05T05:13:24.240Z,58.15
2022-08-05T05:14:27.810Z,56.89
2022-08-05T05:15:57.341Z,57.75
2022-08-05T05:16:30.246Z,57.36
2022-08-05T05:17:56.314Z,56.68
2022-08-05T05:18:31.461Z,58.71
2022-08-05T05:19:27.320Z,55.48
2022-08-05T05:20:28.833Z,57.73
2022-08-05T05:21:24.172Z,58.64
2022-08-05T05:22:26.098Z,57.76
2022-08-05T05:23:25.137Z,55.33
2022-08-05T05:24:56.393Z,58.24
2022-08-05T05:25:40.440Z,56.57
2022-08-05T05:26:28.407Z,59.52
2022-08-05T05:27:25.388Z,57.85
2022-08-05T05:28:25.105Z,59.29
2022-08-05T05:29:24.091Z,55.32
2022-08-05T05:30:30.627Z,57.69
2022-08-05T05:31:26.005Z,55.37
2022-08-05T05:32:24.053Z,57.31
2022-08-05T05:33:24.070Z,59.15
2022-08-05T05:34:26.754Z,59.70
2022-08-05T05:35:25.185Z,52.43
2022-08-05T05:36:24.010Z,55.21
2022-08-05T05:37:37.474Z,56.35
2022-08-05T05:38:27.576Z,57.35
2022-08-05T05:39:24.044Z,56.41
2022-08-05T05:40:26.171Z,56.07
2022-08-05T05:41:24.010Z,57.08
2022-08-05T05:42:23.973Z,57.05
2022-08-05T05:43:54.793Z,54.73
2022-08-05T05:44:36.484Z,53.53
2022-08-05T05:45:24.946Z,56.39
2022-08-05T05:46:23.877Z,54.85
2022-08-05T05:47:30.198Z,58.55
2022-08-05T05:48:27.569Z,55.69
2022-08-05T05:49:23.929Z,56.28
2022-08-05T05:50:23.931Z,54.44
2022-08-05T05:51:23.908Z,55.25
2022-08-05T05:52:28.402Z,52.98
2022-08-05T05:53:24.850Z,54.58
2022-08-05T05:54:49.687Z,56.32
2022-08-05T05:55:24.843Z,56.00
2022-08-05T05:56:31.375Z,52.20
2022-08-05T05:57:24.973Z,51.68
2022-08-05T05:58:31.458Z,57.12
2022-08-05T05:59:24.791Z,56.77
2022-08-05T06:00:31.406Z,56.02
2022-08-05T06:01:24.809Z,57.83
2022-08-05T06:02:32.626Z,56.27
2022-08-05T06:03:40.182Z,56.28
2022-08-05T06:04:24.828Z,53.37
2022-08-05T06:05:23.734Z,55.32
2022-08-05T06:06:23.735Z,55.62
2022-08-05T06:07:23.864Z,58.53
2022-08-05T06:08:32.686Z,53.17
2022-08-05T06:09:49.165Z,55.83
2022-08-05T06:10:24.695Z,56.44
2022-08-05T06:11:23.662Z,55.80
2022-08-05T06:12:23.655Z,58.64
2022-08-05T06:13:23.689Z,60.94
2022-08-05T06:14:23.621Z,55.41
2022-08-05T06:15:24.450Z,54.70
2022-08-05T06:16:28.552Z,57.14
2022-08-05T06:17:31.001Z,54.57
2022-08-05T06:18:31.094Z,57.16
2022-08-05T06:19:26.054Z,54.93
2022-08-05T06:20:24.575Z,55.39
2022-08-05T06:21:23.612Z,54.06
2022-08-05T06:22:24.545Z,53.21
2022-08-05T06:23:23.535Z,51.52
2022-08-05T06:24:27.270Z,56.71
2022-08-05T06:25:59.078Z,53.68
2022-08-05T06:26:25.050Z,53.47
2022-08-05T06:28:10.412Z,55.34
2022-08-05T06:28:24.741Z,55.09
2022-08-05T06:29:42.982Z,51.62
2022-08-05T06:30:25.228Z,52.87
2022-08-05T06:31:30.393Z,54.51
2022-08-05T06:32:28.881Z,55.97
2022-08-05T06:33:33.384Z,53.53
2022-08-05T06:34:24.454Z,48.07
2022-08-05T06:36:03.669Z,53.76
2022-08-05T06:36:25.844Z,53.66
2022-08-05T06:37:52.424Z,55.66
2022-08-05T06:38:36.191Z,51.78
2022-08-05T06:39:24.689Z,54.69
2022-08-05T06:40:28.058Z,54.08
2022-08-05T06:41:24.416Z,55.03
2022-08-05T06:42:23.445Z,53.75
2022-08-05T06:43:59.116Z,57.05
2022-08-05T06:44:24.368Z,51.85
2022-08-05T06:46:02.865Z,56.68
2022-08-05T06:46:29.693Z,54.08
2022-08-05T06:48:11.459Z,57.65
2022-08-05T06:48:53.285Z,57.72
2022-08-05T06:50:01.354Z,54.18
2022-08-05T06:50:24.255Z,55.40
2022-08-05T06:51:30.126Z,54.38
2022-08-05T06:52:37.315Z,54.09
2022-08-05T06:53:28.516Z,50.91
2022-08-05T06:54:25.915Z,50.21
2022-08-05T06:55:23.249Z,55.68
2022-08-05T06:56:26.600Z,57.47
2022-08-05T06:58:02.768Z,53.73
2022-08-05T06:58:35.205Z,55.90
2022-08-05T06:59:24.179Z,55.28
2022-08-05T07:00:24.981Z,54.32
2022-08-05T07:01:23.193Z,56.00
2022-08-05T07:02:23.187Z,55.12
2022-08-05T07:03:28.141Z,55.99
2022-08-05T07:04:24.188Z,54.25
2022-08-05T07:05:37.045Z,54.13
2022-08-05T07:06:25.158Z,53.69
2022-08-05T07:07:24.256Z,48.94
2022-08-05T07:08:25.192Z,54.73
2022-08-05T07:09:24.883Z,52.73
2022-08-05T07:10:23.131Z,52.95
2022-08-05T07:11:25.144Z,55.28
2022-08-05T07:12:23.094Z,55.84
2022-08-05T07:13:58.382Z,52.14
2022-08-05T07:14:29.252Z,54.96
2022-08-05T07:15:34.620Z,56.38
2022-08-05T07:17:59.466Z,53.05
2022-08-05T07:18:07.045Z,54.52
2022-08-05T07:18:29.114Z,53.96
2022-08-05T07:20:10.521Z,49.07
2022-08-05T07:20:34.048Z,52.97
2022-08-05T07:21:25.963Z,54.15
2022-08-05T07:22:28.185Z,54.07
2022-08-05T07:23:29.601Z,54.41
2022-08-05T07:24:24.014Z,55.93
2022-08-05T07:25:55.149Z,54.40
2022-08-05T07:26:25.716Z,55.17
2022-08-05T07:27:23.128Z,55.15
2022-08-05T07:28:22.896Z,51.49
2022-08-05T07:30:21.908Z,52.32
2022-08-05T07:30:30.733Z,54.85
2022-08-05T07:31:40.636Z,53.95
2022-08-05T07:32:26.024Z,55.93
2022-08-05T07:33:36.745Z,55.79
2022-08-05T07:34:28.498Z,54.84
2022-08-05T07:35:55.977Z,52.95
2022-08-05T07:36:23.881Z,57.40
2022-08-05T07:37:23.130Z,58.85
2022-08-05T07:38:33.720Z,56.93
2022-08-05T07:39:24.610Z,55.07
2022-08-05T07:40:31.367Z,55.27
2022-08-05T07:42:14.748Z,53.62
2022-08-05T07:42:33.677Z,52.26
2022-08-05T07:43:23.828Z,51.73
2022-08-05T07:44:22.813Z,56.71
2022-08-05T07:45:56.556Z,56.43
2022-08-05T07:46:25.164Z,56.58
2022-08-05T07:47:25.723Z,57.93
2022-08-05T07:49:01.665Z,56.44
2022-08-05T07:49:26.029Z,55.39
2022-08-05T07:50:28.897Z,55.53
2022-08-05T07:51:37.018Z,57.18
2022-08-05T07:52:24.012Z,56.30
2022-08-05T07:53:22.868Z,52.69
2022-08-05T07:54:26.656Z,57.13
2022-08-05T07:55:44.381Z,56.92
2022-08-05T07:56:39.083Z,55.39
2022-08-05T07:57:50.581Z,57.60
2022-08-05T07:58:57.878Z,56.88
2022-08-05T07:59:38.271Z,57.50
2022-08-05T08:00:23.789Z,57.85
2022-08-05T08:01:22.737Z,55.69
2022-08-05T08:02:22.636Z,54.67
2022-08-05T08:03:22.593Z,56.40
2022-08-05T08:04:37.947Z,57.03
2022-08-05T08:05:23.577Z,56.22
2022-08-05T08:06:22.605Z,54.97
2022-08-05T08:07:23.642Z,55.35
2022-08-05T08:08:22.560Z,58.32
2022-08-05T08:09:22.600Z,55.29
2022-08-05T08:10:22.543Z,58.76
2022-08-05T08:11:27.645Z,57.93
2022-08-05T08:12:35.013Z,55.74
2022-08-05T08:13:29.239Z,57.23
2022-08-05T08:14:23.431Z,58.32
2022-08-05T08:16:33.967Z,58.18
2022-08-05T08:16:35.676Z,58.22
2022-08-05T08:17:23.744Z,59.08
2022-08-05T08:18:22.574Z,54.43
2022-08-05T08:20:10.743Z,57.51
2022-08-05T08:20:43.915Z,56.78
2022-08-05T08:21:24.520Z,59.06
2022-08-05T08:22:22.671Z,55.18
2022-08-05T08:24:01.193Z,56.62
2022-08-05T08:24:23.560Z,54.57
2022-08-05T08:25:27.140Z,55.22
2022-08-05T08:26:29.273Z,55.44
2022-08-05T08:27:23.682Z,56.61
2022-08-05T08:28:37.138Z,56.87
2022-08-05T08:30:06.170Z,53.56
2022-08-05T08:30:32.401Z,56.38
2022-08-05T08:31:28.276Z,52.51
2022-08-05T08:32:28.175Z,54.94
2022-08-05T08:33:22.445Z,52.67
2022-08-05T08:34:30.285Z,53.13
2022-08-05T08:35:23.264Z,53.36
2022-08-05T08:36:38.966Z,57.57
2022-08-05T08:37:28.075Z,57.03
2022-08-05T08:38:35.123Z,57.00
2022-08-05T08:39:23.310Z,57.33
2022-08-05T08:40:22.494Z,56.54
2022-08-05T08:41:26.287Z,56.69
2022-08-05T08:42:33.659Z,56.15
2022-08-05T08:45:21.153Z,56.67
2022-08-05T08:45:23.974Z,55.16
2022-08-05T08:45:27.218Z,54.20
2022-08-05T08:46:24.241Z,54.58
2022-08-05T08:48:05.722Z,56.32
2022-08-05T08:49:02.939Z,54.72
2022-08-05T08:50:14.162Z,55.92
2022-08-05T08:50:31.077Z,55.56
2022-08-05T08:52:03.313Z,54.60
2022-08-05T08:52:23.079Z,55.30
2022-08-05T08:53:22.199Z,57.14
2022-08-05T08:54:22.274Z,53.72
2022-08-05T08:56:01.688Z,58.12
2022-08-05T08:56:23.048Z,55.70
2022-08-05T08:57:22.678Z,55.90
2022-08-05T08:58:36.907Z,57.54
2022-08-05T08:59:23.035Z,54.52
2022-08-05T09:00:22.054Z,56.26
2022-08-05T09:01:22.073Z,55.86
2022-08-05T09:02:24.162Z,56.06
2022-08-05T09:03:22.139Z,55.94
2022-08-05T09:04:21.965Z,60.38
2022-08-05T09:05:38.695Z,55.61
2022-08-05T09:06:24.191Z,55.24
2022-08-05T09:07:28.878Z,53.74
2022-08-05T09:08:26.580Z,56.45
2022-08-05T09:09:22.351Z,53.62
2022-08-05T09:10:22.552Z,58.01
2022-08-05T09:11:51.277Z,59.15
2022-08-05T09:12:27.205Z,57.05
2022-08-05T09:13:23.487Z,56.53
2022-08-05T09:14:57.810Z,56.62
2022-08-05T09:15:22.952Z,56.65
2022-08-05T09:16:21.878Z,57.07
2022-08-05T09:17:40.659Z,58.07
2022-08-05T09:18:22.872Z,59.97
2022-08-05T09:19:21.889Z,56.72
2022-08-05T09:20:37.278Z,56.53
2022-08-05T09:22:23.110Z,57.69
2022-08-05T09:22:32.100Z,59.49
2022-08-05T09:23:22.842Z,59.82
2022-08-05T09:24:21.760Z,56.14
2022-08-05T09:25:24.591Z,60.06
2022-08-05T09:26:22.908Z,59.70
2022-08-05T09:28:04.565Z,58.73
2022-08-05T09:28:23.227Z,57.34
2022-08-05T09:29:21.777Z,58.27
2022-08-05T09:30:23.456Z,57.73
2022-08-05T09:31:43.405Z,59.27
2022-08-05T09:32:46.501Z,59.90
2022-08-05T09:33:22.811Z,58.62
2022-08-05T09:34:22.717Z,56.50
2022-08-05T09:35:27.351Z,58.22
2022-08-05T09:36:27.796Z,58.74
2022-08-05T09:38:12.938Z,59.25
2022-08-05T09:38:27.505Z,56.66
2022-08-05T09:39:22.631Z,54.20
2022-08-05T09:40:22.013Z,55.49
2022-08-05T09:41:21.592Z,54.82
2022-08-05T09:42:28.233Z,57.48
2022-08-05T09:43:24.204Z,55.57
2022-08-05T09:44:21.694Z,56.18
2022-08-05T09:46:07.831Z,57.30
2022-08-05T09:46:22.596Z,58.98
2022-08-05T09:47:22.701Z,57.36
2022-08-05T09:48:22.624Z,55.82
2022-08-05T09:49:21.547Z,57.22
2022-08-05T09:50:38.690Z,57.46
2022-08-05T09:51:22.572Z,56.85
2022-08-05T09:52:21.658Z,58.38
2022-08-05T09:53:26.031Z,59.21
2022-08-05T09:54:29.298Z,59.20
2022-08-05T09:55:57.524Z,58.13
2022-08-05T09:56:23.069Z,58.52
2022-08-05T09:57:23.643Z,60.51
2022-08-05T09:58:21.447Z,59.55
2022-08-05T09:59:21.466Z,59.61
2022-08-05T10:00:21.702Z,55.61
2022-08-05T10:01:31.430Z,57.86
2022-08-05T10:02:22.786Z,57.50
2022-08-05T10:03:22.672Z,56.34
2022-08-05T10:04:29.282Z,56.94
2022-08-05T10:05:22.991Z,59.29
2022-08-05T10:06:23.257Z,58.05
2022-08-05T10:08:11.247Z,55.94
2022-08-05T10:08:37.291Z,57.03
2022-08-05T10:09:27.400Z,58.83
2022-08-05T10:10:28.097Z,58.36
2022-08-05T10:11:22.813Z,59.24
2022-08-05T10:12:33.936Z,58.52
2022-08-05T10:13:43.903Z,59.71
2022-08-05T10:14:22.361Z,59.14
2022-08-05T10:15:25.643Z,58.99
2022-08-05T10:16:23.628Z,59.56
2022-08-05T10:17:37.874Z,59.67
2022-08-05T10:18:23.901Z,60.48
2022-08-05T10:19:23.804Z,57.90
2022-08-05T10:20:22.370Z,58.08
2022-08-05T10:21:22.046Z,56.93
2022-08-05T10:22:29.751Z,55.29
2022-08-05T10:23:55.108Z,58.03
2022-08-05T10:24:25.052Z,58.75
2022-08-05T10:25:21.168Z,56.99
2022-08-05T10:26:32.720Z,57.67
2022-08-05T10:27:26.288Z,60.35
2022-08-05T10:28:29.762Z,53.94
2022-08-05T10:29:23.401Z,57.15
2022-08-05T10:32:47.266Z,56.68
2022-08-05T10:32:52.921Z,57.45
2022-08-05T10:32:54.992Z,58.09
2022-08-05T10:33:22.325Z,57.16
2022-08-05T10:34:25.843Z,56.77
2022-08-05T10:35:22.090Z,57.06
2022-08-05T10:36:23.419Z,58.73
2022-08-05T10:37:22.069Z,57.10
2022-08-05T10:38:21.148Z,59.39
2022-08-05T10:39:24.932Z,56.70
2022-08-05T10:40:27.823Z,55.00
2022-08-05T10:41:23.648Z,58.23
2022-08-05T10:42:33.321Z,56.14
2022-08-05T10:43:23.223Z,58.40
2022-08-05T10:44:21.975Z,55.05
2022-08-05T10:45:30.516Z,55.79
2022-08-05T10:46:23.754Z,55.60
2022-08-05T10:47:26.920Z,57.07
2022-08-05T10:48:30.669Z,56.24
2022-08-05T10:49:26.779Z,56.95
2022-08-05T10:50:36.248Z,58.03
2022-08-05T10:51:23.019Z,59.19
2022-08-05T10:52:24.061Z,58.38
2022-08-05T10:53:20.897Z,62.14
2022-08-05T10:54:28.126Z,57.25
2022-08-05T10:55:21.921Z,57.31
2022-08-05T10:56:25.464Z,59.65
2022-08-05T10:57:21.906Z,57.69
2022-08-05T10:58:21.012Z,58.65
2022-08-05T11:00:03.676Z,60.83
2022-08-05T11:00:22.955Z,59.47
2022-08-05T11:01:28.506Z,59.06
2022-08-05T11:02:37.832Z,58.06
2022-08-05T11:03:24.893Z,57.74
2022-08-05T11:04:21.523Z,54.77
2022-08-05T11:05:20.940Z,59.69
2022-08-05T11:06:20.812Z,59.68
2022-08-05T11:07:32.993Z,62.00
2022-08-05T11:08:36.811Z,59.09
2022-08-05T11:09:24.397Z,59.02
2022-08-05T11:10:21.746Z,59.44
2022-08-05T11:11:20.803Z,58.71
2022-08-05T11:12:20.781Z,60.42
2022-08-05T11:13:20.711Z,57.57
2022-08-05T11:14:37.072Z,56.51
2022-08-05T11:15:22.688Z,55.95
2022-08-05T11:16:20.793Z,59.72
2022-08-05T11:17:20.866Z,59.77
2022-08-05T11:18:22.646Z,56.62
2022-08-05T11:20:10.369Z,55.94
2022-08-05T11:20:22.448Z,58.07
2022-08-05T11:21:20.613Z,56.70
2022-08-05T11:22:20.656Z,59.08
2022-08-05T11:23:20.767Z,57.22
2022-08-05T11:24:30.808Z,58.34
2022-08-05T11:26:04.904Z,58.71
2022-08-05T11:26:28.790Z,57.14
2022-08-05T11:27:21.845Z,59.73
2022-08-05T11:28:20.649Z,58.67
2022-08-05T11:29:20.695Z,59.34
2022-08-05T11:30:20.547Z,59.62
2022-08-05T11:31:58.122Z,58.48
2022-08-05T11:32:21.635Z,56.40
2022-08-05T11:33:21.249Z,57.76
2022-08-05T11:34:22.781Z,58.39
2022-08-05T11:35:22.645Z,58.50
2022-08-05T11:36:34.204Z,57.95
2022-08-05T11:38:29.337Z,56.87
2022-08-05T11:38:30.246Z,60.78
2022-08-05T11:39:21.549Z,58.62
2022-08-05T11:40:22.122Z,56.97
2022-08-05T11:41:54.443Z,59.40
2022-08-05T11:42:21.418Z,62.21
2022-08-05T11:43:21.407Z,60.18
2022-08-05T11:44:40.593Z,60.45
2022-08-05T11:46:14.613Z,62.81
2022-08-05T11:46:32.178Z,60.36
2022-08-05T11:47:22.119Z,62.98
2022-08-05T11:48:22.385Z,56.83
2022-08-05T11:49:20.387Z,62.67
2022-08-05T11:50:20.451Z,62.88
2022-08-05T11:51:44.586Z,62.81
2022-08-05T11:52:23.000Z,61.74
2022-08-05T11:53:21.326Z,62.39
2022-08-05T11:54:20.452Z,60.83
2022-08-05T11:55:20.302Z,61.19
2022-08-05T11:56:20.336Z,62.24
2022-08-05T11:57:24.984Z,61.52
2022-08-05T11:58:21.469Z,60.79
2022-08-05T11:59:21.181Z,62.17
2022-08-05T12:00:20.279Z,61.44
2022-08-05T12:01:20.274Z,63.60
2022-08-05T12:02:24.135Z,64.19
2022-08-05T12:03:28.674Z,63.78
2022-08-05T12:04:21.488Z,64.27
2022-08-05T12:05:20.304Z,63.59
2022-08-05T12:06:20.193Z,63.54
2022-08-05T12:08:03.520Z,64.23
2022-08-05T12:08:21.166Z,63.27
2022-08-05T12:09:20.250Z,64.26
2022-08-05T12:10:20.144Z,63.51
2022-08-05T12:11:20.482Z,62.74
2022-08-05T12:12:20.159Z,61.85
2022-08-05T12:13:47.873Z,63.11
2022-08-05T12:14:22.039Z,61.84
2022-08-05T12:15:20.058Z,61.83
2022-08-05T12:16:25.649Z,61.68
2022-08-05T12:18:03.868Z,62.04
2022-08-05T12:18:24.368Z,61.99
2022-08-05T12:20:27.690Z,64.31
2022-08-05T12:20:30.703Z,64.92
2022-08-05T12:21:21.223Z,64.64
2022-08-05T12:22:20.254Z,64.34
2022-08-05T12:23:20.035Z,64.52
2022-08-05T12:24:20.049Z,63.58
2022-08-05T12:25:20.046Z,64.25
2022-08-05T12:26:20.039Z,65.39
2022-08-05T12:27:31.466Z,64.51
2022-08-05T12:28:20.944Z,63.50
2022-08-05T12:29:22.871Z,64.90
2022-08-05T12:30:20.043Z,64.74
2022-08-05T12:31:28.031Z,63.00
2022-08-05T12:32:21.145Z,63.30
2022-08-05T12:33:27.686Z,63.37
2022-08-05T12:34:23.815Z,62.85
2022-08-05T12:35:21.590Z,64.36
2022-08-05T12:36:20.067Z,65.33
2022-08-05T12:37:30.182Z,64.19
2022-08-05T12:38:22.330Z,65.77
2022-08-05T12:39:20.984Z,64.33
2022-08-05T12:40:20.738Z,63.18
2022-08-05T12:41:21.360Z,64.86
2022-08-05T12:42:20.843Z,65.12
2022-08-05T12:43:21.101Z,64.24
2022-08-05T12:44:21.570Z,63.77
2022-08-05T12:45:20.783Z,64.07
2022-08-05T12:46:23.597Z,65.34
2022-08-05T12:47:21.085Z,64.06
2022-08-05T12:48:32.202Z,64.71
2022-08-05T12:49:20.766Z,64.47
2022-08-05T12:50:19.999Z,65.96
2022-08-05T12:52:14.291Z,65.69
2022-08-05T12:52:25.270Z,67.39
2022-08-05T12:53:21.712Z,65.41
2022-08-05T12:54:23.705Z,64.70
2022-08-05T12:55:22.237Z,64.93
2022-08-05T12:56:34.430Z,64.51
2022-08-05T12:57:20.694Z,62.52
2022-08-05T12:58:50.571Z,65.23
2022-08-05T12:59:21.029Z,64.25
2022-08-05T13:02:01.084Z,66.68
2022-08-05T13:02:02.287Z,63.64
2022-08-05T13:02:21.558Z,63.35
2022-08-05T13:03:20.653Z,63.23
2022-08-05T13:04:21.330Z,63.84
2022-08-05T13:05:20.639Z,64.76
2022-08-05T13:06:19.559Z,65.13
2022-08-05T13:07:47.529Z,64.50
2022-08-05T13:08:22.253Z,63.51
2022-08-05T13:09:28.314Z,65.00
2022-08-05T13:10:20.668Z,66.23
2022-08-05T13:11:25.553Z,65.25
2022-08-05T13:12:20.490Z,63.48
2022-08-05T13:14:06.089Z,64.95